sensor_id;sensor_type;location;lat;lon;timestamp;P1;durP1;ratioP1;P2;durP2;ratioP2
21833;SDS011;11079;51.092;3.458;2022-10-26T00:40:13;6.15;;;2.90;;
21833;SDS011;11079;51.092;3.458;2022-10-26T04:18:15;7.53;;;1.70;;
21833;SDS011;11079;51.092;3.458;2022-10-26T05:49:20;4.35;;;1.90;;
21833;SDS011;11079;51.092;3.458;2022-10-26T05:55:38;7.15;;;2.08;;
21833;SDS011;11079;51.092;3.458;2022-10-26T06:05:23;5.07;;;1.90;;
21833;SDS011;11079;51.092;3.458;2022-10-26T06:07:56;4.63;;;1.90;;
21833;SDS011;11079;51.092;3.458;2022-10-26T06:10:35;6.57;;;2.20;;
21833;SDS011;11079;51.092;3.458;2022-10-26T06:13:35;5.60;;;2.30;;
21833;SDS011;11079;51.092;3.458;2022-10-26T06:21:42;5.85;;;1.70;;
21833;SDS011;11079;51.092;3.458;2022-10-26T06:30:32;7.07;;;2.20;;
21833;SDS011;11079;51.092;3.458;2022-10-26T06:32:58;9.18;;;3.00;;
21833;SDS011;11079;51.092;3.458;2022-10-26T06:38:13;3.80;;;2.15;;
21833;SDS011;11079;51.092;3.458;2022-10-26T06:40:42;5.28;;;2.10;;
21833;SDS011;11079;51.092;3.458;2022-10-26T06:43:28;5.68;;;2.75;;
21833;SDS011;11079;51.092;3.458;2022-10-26T06:48:43;6.20;;;2.35;;
21833;SDS011;11079;51.092;3.458;2022-10-26T06:51:36;6.22;;;2.42;;
21833;SDS011;11079;51.092;3.458;2022-10-26T06:56:55;3.45;;;2.42;;
21833;SDS011;11079;51.092;3.458;2022-10-26T06:59:31;5.72;;;2.65;;
21833;SDS011;11079;51.092;3.458;2022-10-26T07:02:19;7.93;;;2.60;;
21833;SDS011;11079;51.092;3.458;2022-10-26T07:04:45;5.57;;;2.45;;
21833;SDS011;11079;51.092;3.458;2022-10-26T07:07:14;8.05;;;2.40;;
21833;SDS011;11079;51.092;3.458;2022-10-26T07:09:51;6.68;;;1.90;;
21833;SDS011;11079;51.092;3.458;2022-10-26T07:12:16;4.80;;;2.17;;
21833;SDS011;11079;51.092;3.458;2022-10-26T07:14:42;6.40;;;2.50;;
21833;SDS011;11079;51.092;3.458;2022-10-26T07:17:21;4.65;;;2.08;;
21833;SDS011;11079;51.092;3.458;2022-10-26T07:19:48;5.85;;;2.10;;
21833;SDS011;11079;51.092;3.458;2022-10-26T07:22:16;5.32;;;2.35;;
21833;SDS011;11079;51.092;3.458;2022-10-26T07:24:42;7.30;;;2.53;;
21833;SDS011;11079;51.092;3.458;2022-10-26T07:27:08;9.40;;;2.17;;
21833;SDS011;11079;51.092;3.458;2022-10-26T07:29:36;8.48;;;2.63;;
21833;SDS011;11079;51.092;3.458;2022-10-26T07:32:01;9.57;;;2.42;;
21833;SDS011;11079;51.092;3.458;2022-10-26T07:34:56;5.10;;;2.30;;
21833;SDS011;11079;51.092;3.458;2022-10-26T07:37:42;6.30;;;2.20;;
21833;SDS011;11079;51.092;3.458;2022-10-26T07:40:10;6.40;;;1.67;;
21833;SDS011;11079;51.092;3.458;2022-10-26T07:42:50;4.60;;;2.00;;
21833;SDS011;11079;51.092;3.458;2022-10-26T07:45:21;9.10;;;2.65;;
21833;SDS011;11079;51.092;3.458;2022-10-26T07:47:48;4.97;;;2.10;;
21833;SDS011;11079;51.092;3.458;2022-10-26T07:50:14;8.43;;;2.85;;
21833;SDS011;11079;51.092;3.458;2022-10-26T07:52:40;5.57;;;2.25;;
21833;SDS011;11079;51.092;3.458;2022-10-26T07:55:11;6.22;;;2.53;;
21833;SDS011;11079;51.092;3.458;2022-10-26T07:57:43;4.95;;;2.40;;
21833;SDS011;11079;51.092;3.458;2022-10-26T08:00:09;6.40;;;2.60;;
21833;SDS011;11079;51.092;3.458;2022-10-26T08:02:38;6.45;;;2.90;;
21833;SDS011;11079;51.092;3.458;2022-10-26T08:05:03;7.65;;;2.40;;
21833;SDS011;11079;51.092;3.458;2022-10-26T08:07:42;10.38;;;3.47;;
21833;SDS011;11079;51.092;3.458;2022-10-26T08:13:52;7.35;;;2.95;;
21833;SDS011;11079;51.092;3.458;2022-10-26T08:16:29;8.50;;;3.45;;
21833;SDS011;11079;51.092;3.458;2022-10-26T08:19:14;6.82;;;3.10;;
21833;SDS011;11079;51.092;3.458;2022-10-26T08:21:47;6.32;;;3.08;;
21833;SDS011;11079;51.092;3.458;2022-10-26T08:24:15;7.93;;;3.42;;
21833;SDS011;11079;51.092;3.458;2022-10-26T08:26:45;8.15;;;2.25;;
21833;SDS011;11079;51.092;3.458;2022-10-26T08:29:24;7.50;;;2.80;;
21833;SDS011;11079;51.092;3.458;2022-10-26T08:35:48;8.93;;;2.78;;
21833;SDS011;11079;51.092;3.458;2022-10-26T08:38:46;10.82;;;2.53;;
21833;SDS011;11079;51.092;3.458;2022-10-26T08:41:27;4.90;;;2.17;;
21833;SDS011;11079;51.092;3.458;2022-10-26T08:45:01;6.28;;;2.53;;
21833;SDS011;11079;51.092;3.458;2022-10-26T08:47:35;8.40;;;2.38;;
21833;SDS011;11079;51.092;3.458;2022-10-26T08:50:09;5.28;;;2.75;;
21833;SDS011;11079;51.092;3.458;2022-10-26T08:55:52;7.47;;;2.63;;
21833;SDS011;11079;51.092;3.458;2022-10-26T08:58:32;6.03;;;2.03;;
21833;SDS011;11079;51.092;3.458;2022-10-26T09:01:04;7.20;;;2.40;;
21833;SDS011;11079;51.092;3.458;2022-10-26T09:03:30;6.75;;;2.05;;
21833;SDS011;11079;51.092;3.458;2022-10-26T09:18:16;7.55;;;1.75;;
21833;SDS011;11079;51.092;3.458;2022-10-26T09:21:10;6.22;;;1.77;;
21833;SDS011;11079;51.092;3.458;2022-10-26T09:24:07;4.30;;;1.45;;
21833;SDS011;11079;51.092;3.458;2022-10-26T09:26:53;3.17;;;1.63;;
21833;SDS011;11079;51.092;3.458;2022-10-26T09:29:22;5.95;;;1.25;;
21833;SDS011;11079;51.092;3.458;2022-10-26T09:31:51;4.43;;;1.45;;
21833;SDS011;11079;51.092;3.458;2022-10-26T09:37:28;4.20;;;1.35;;
21833;SDS011;11079;51.092;3.458;2022-10-26T09:40:42;5.28;;;1.83;;
21833;SDS011;11079;51.092;3.458;2022-10-26T09:51:25;5.60;;;1.60;;
21833;SDS011;11079;51.092;3.458;2022-10-26T11:00:31;6.95;;;1.65;;
21833;SDS011;11079;51.092;3.458;2022-10-26T11:06:36;3.83;;;1.50;;
21833;SDS011;11079;51.092;3.458;2022-10-26T11:09:26;5.47;;;1.10;;
21833;SDS011;11079;51.092;3.458;2022-10-26T11:14:51;5.53;;;1.35;;
21833;SDS011;11079;51.092;3.458;2022-10-26T11:33:20;2.90;;;1.25;;
21833;SDS011;11079;51.092;3.458;2022-10-26T11:35:56;4.15;;;1.02;;
